Time;durP1;ratioP1;P1;durP2;ratioP2;P2;SDS_P1;SDS_P2;PMS_P1;PMS_P2;Temp;Humidity;BMP_temperature;BMP_pressure;BME280_temperature;BME280_humidity;BME280_pressure;Samples;Min_cycle;Max_cycle;Signal;HPM_P1;HPM_P2
2022/02/20 00:01:05;;;;;;;10.35;4.38;;;;;;;5.85;100.00;98212.97;5104332;28;20073;-74
2022/02/20 00:03:31;;;;;;;12.10;5.75;;;;;;;5.86;100.00;98211.06;5090836;28;20028;-75
2022/02/20 00:05:56;;;;;;;9.63;5.07;;;;;;;5.87;100.00;98209.97;5091036;28;20036;-76
2022/02/20 00:08:22;;;;;;;14.18;7.22;;;;;;;5.85;100.00;98209.41;5090992;28;20024;-74
2022/02/20 00:10:47;;;;;;;13.13;7.13;;;;;;;5.89;100.00;98219.50;5091496;28;20027;-76
2022/02/20 00:13:12;;;;;;;15.98;9.52;;;;;;;5.89;100.00;98227.66;5091166;28;20081;-75
2022/02/20 00:15:38;;;;;;;17.30;10.00;;;;;;;5.93;100.00;98222.53;5089671;28;20024;-77
2022/02/20 00:18:04;;;;;;;23.27;12.52;;;;;;;5.87;100.00;98229.81;5089500;28;20024;-76
2022/02/20 00:20:31;;;;;;;19.85;12.77;;;;;;;5.90;100.00;98229.28;5089492;28;20016;-76
2022/02/20 00:22:57;;;;;;;24.73;14.63;;;;;;;5.81;100.00;98233.53;5090981;28;20039;-75
2022/02/20 00:25:24;;;;;;;20.27;14.55;;;;;;;5.69;100.00;98213.06;5090621;28;20031;-75
2022/02/20 00:27:50;;;;;;;21.95;14.35;;;;;;;5.65;100.00;98201.06;5090831;28;20056;-76
2022/02/20 00:30:16;;;;;;;21.70;14.85;;;;;;;5.68;100.00;98209.53;5089569;28;20101;-76
2022/02/20 00:32:42;;;;;;;20.85;11.73;;;;;;;5.69;100.00;98210.34;5090936;28;20440;-76
2022/02/20 00:35:08;;;;;;;19.67;12.10;;;;;;;5.65;100.00;98209.22;5093482;28;20047;-76
2022/02/20 00:37:33;;;;;;;21.55;13.25;;;;;;;5.65;100.00;98214.63;5090799;28;20509;-75
2022/02/20 00:39:58;;;;;;;18.35;12.70;;;;;;;5.66;100.00;98213.56;5093451;28;20071;-75
2022/02/20 00:42:24;;;;;;;24.35;14.23;;;;;;;5.58;100.00;98214.03;5097614;28;20499;-85
2022/02/20 00:44:49;;;;;;;26.00;16.20;;;;;;;5.58;100.00;98230.28;5099243;28;20461;-77
2022/02/20 00:47:15;;;;;;;19.30;13.52;;;;;;;5.61;100.00;98225.19;5095472;28;20370;-74
2022/02/20 00:49:40;;;;;;;22.90;14.52;;;;;;;5.62;100.00;98229.53;5094893;28;20019;-75
2022/02/20 00:52:06;;;;;;;20.67;14.30;;;;;;;5.58;100.00;98224.88;5094570;28;20028;-75
2022/02/20 00:54:31;;;;;;;18.45;13.25;;;;;;;5.64;100.00;98218.44;5094173;28;20032;-76
2022/02/20 00:56:56;;;;;;;18.35;11.13;;;;;;;5.60;100.00;98206.47;5094245;28;20012;-75
2022/02/20 00:59:22;;;;;;;12.73;8.07;;;;;;;5.57;100.00;98201.56;5093116;28;20108;-75
2022/02/20 01:01:47;;;;;;;20.13;13.05;;;;;;;5.64;100.00;98205.66;5093095;28;20028;-75
2022/02/20 01:04:13;;;;;;;22.90;12.52;;;;;;;5.64;100.00;98207.59;5094013;28;20055;-76
2022/02/20 01:06:38;;;;;;;22.08;12.82;;;;;;;5.66;100.00;98211.69;5094165;28;20071;-75
2022/02/20 01:09:03;;;;;;;17.27;11.43;;;;;;;5.62;100.00;98204.31;5094288;28;20012;-75
2022/02/20 01:11:29;;;;;;;12.95;8.52;;;;;;;5.58;100.00;98208.59;5093031;28;20039;-76
2022/02/20 01:13:54;;;;;;;16.33;7.70;;;;;;;5.52;100.00;98215.03;5093808;28;20016;-75
2022/02/20 01:16:20;;;;;;;14.85;7.28;;;;;;;5.37;100.00;98205.69;5094153;28;20024;-75
2022/02/20 01:18:45;;;;;;;12.70;8.05;;;;;;;5.37;100.00;98216.53;5094148;28;20035;-75
2022/02/20 01:21:11;;;;;;;10.25;6.18;;;;;;;5.33;100.00;98214.59;5093994;28;20016;-75
2022/02/20 01:23:37;;;;;;;10.88;6.70;;;;;;;5.35;100.00;98220.59;5093921;28;20059;-75
2022/02/20 01:26:02;;;;;;;11.73;6.40;;;;;;;5.29;100.00;98216.97;5093941;28;20036;-76
2022/02/20 01:28:28;;;;;;;11.70;6.25;;;;;;;5.37;100.00;98227.41;5094151;28;20027;-77
2022/02/20 01:30:53;;;;;;;7.53;4.45;;;;;;;5.30;100.00;98223.22;5095063;28;20020;-75
2022/02/20 01:33:18;;;;;;;7.63;4.45;;;;;;;5.36;100.00;98223.03;5093866;28;20073;-76
2022/02/20 01:35:45;;;;;;;12.27;4.57;;;;;;;5.32;100.00;98216.50;5093526;28;20027;-75
2022/02/20 01:38:15;;;;;;;9.43;4.57;;;;;;;5.25;100.00;98215.88;5093571;28;20394;-76
2022/02/20 01:40:45;;;;;;;8.80;4.32;;;;;;;5.24;100.00;98203.38;5093978;28;20382;-75
2022/02/20 01:43:12;;;;;;;8.10;3.92;;;;;;;5.14;100.00;98197.84;5093310;28;20035;-75
2022/02/20 01:45:39;;;;;;;11.00;4.28;;;;;;;5.26;100.00;98200.44;5093540;28;20081;-75
2022/02/20 01:48:04;;;;;;;9.40;4.40;;;;;;;5.36;100.00;98198.63;5093436;28;20024;-75
2022/02/20 01:50:30;;;;;;;12.27;4.10;;;;;;;5.49;100.00;98188.44;5096190;28;20820;-76
2022/02/20 01:52:55;;;;;;;4.97;3.05;;;;;;;5.42;100.00;98188.63;5098799;28;20101;-79
2022/02/20 01:55:21;;;;;;;6.20;2.90;;;;;;;5.48;100.00;98184.94;5099288;28;20031;-77
2022/02/20 01:57:46;;;;;;;4.38;2.00;;;;;;;5.50;100.00;98179.22;5095697;28;20074;-76
2022/02/20 02:00:20;;;;;;;6.30;3.10;;;;;;;5.53;100.00;98167.88;5092060;28;20023;-74
2022/02/20 02:02:46;;;;;;;6.75;3.63;;;;;;;5.52;100.00;98174.34;5092182;28;20130;-75
2022/02/20 02:05:11;;;;;;;6.40;3.05;;;;;;;5.49;100.00;98172.97;5093208;28;20024;-76
2022/02/20 02:07:37;;;;;;;7.15;3.53;;;;;;;5.30;100.00;98160.84;5093336;28;20034;-76
2022/02/20 02:10:03;;;;;;;6.00;3.03;;;;;;;5.37;100.00;98146.03;5093072;28;20469;-75
2022/02/20 02:12:29;;;;;;;6.30;3.38;;;;;;;5.25;100.00;98148.09;5093150;28;20032;-76
2022/02/20 02:15:09;;;;;;;4.68;2.92;;;;;;;5.23;100.00;98152.94;5092847;28;20035;-75
2022/02/20 02:17:35;;;;;;;6.18;2.70;;;;;;;5.18;100.00;98152.88;5092786;28;20020;-74
2022/02/20 02:20:01;;;;;;;6.15;2.80;;;;;;;5.20;100.00;98145.31;5092803;28;20028;-75
2022/02/20 02:22:29;;;;;;;7.05;2.97;;;;;;;5.19;100.00;98140.16;5092768;28;20107;-75
2022/02/20 02:24:56;;;;;;;7.95;3.05;;;;;;;5.24;100.00;98142.91;5093800;28;20031;-76
2022/02/20 02:27:22;;;;;;;7.55;3.20;;;;;;;5.23;100.00;98150.22;5093018;28;20020;-75
2022/02/20 02:29:48;;;;;;;6.68;3.05;;;;;;;5.26;100.00;98148.91;5092367;28;20041;-75
2022/02/20 02:32:15;;;;;;;7.78;3.13;;;;;;;5.25;100.00;98145.38;5090836;28;20036;-74
2022/02/20 02:34:42;;;;;;;7.10;3.30;;;;;;;5.32;100.00;98148.72;5091385;28;20469;-75
2022/02/20 02:37:08;;;;;;;5.70;3.05;;;;;;;5.36;100.00;98155.22;5092997;28;20024;-74
2022/02/20 02:39:34;;;;;;;5.53;2.80;;;;;;;5.27;100.00;98150.53;5091317;28;20024;-74
2022/02/20 02:42:00;;;;;;;4.72;2.20;;;;;;;5.16;100.00;98138.78;5091350;28;20027;-74
2022/02/20 02:44:26;;;;;;;4.85;1.90;;;;;;;5.29;100.00;98135.63;5092222;28;20085;-75
2022/02/20 02:46:51;;;;;;;4.63;1.83;;;;;;;5.15;100.00;98144.44;5092588;28;20032;-75
2022/02/20 02:49:17;;;;;;;5.60;2.10;;;;;;;5.13;100.00;98157.44;5092648;28;20453;-75
2022/02/20 02:51:42;;;;;;;4.85;2.03;;;;;;;5.15;100.00;98156.13;5091357;28;20022;-75
2022/02/20 02:54:10;;;;;;;5.88;2.40;;;;;;;5.14;100.00;98159.06;5095136;28;20815;-74
2022/02/20 02:56:36;;;;;;;4.38;2.53;;;;;;;5.14;100.00;98150.94;5096235;28;20031;-80
2022/02/20 02:59:02;;;;;;;4.25;2.38;;;;;;;5.20;100.00;98156.16;5096313;28;20043;-77
2022/02/20 03:01:31;;;;;;;4.55;2.30;;;;;;;5.25;100.00;98147.25;5091045;28;20032;-75
2022/02/20 03:03:57;;;;;;;5.45;3.15;;;;;;;5.27;100.00;98148.63;5091040;28;20031;-77
2022/02/20 03:06:27;;;;;;;5.10;3.17;;;;;;;5.26;100.00;98141.56;5091839;28;20052;-73
2022/02/20 03:08:52;;;;;;;5.85;3.22;;;;;;;5.18;100.00;98138.50;5091999;28;20802;-74
2022/02/20 03:11:18;;;;;;;7.45;3.55;;;;;;;5.11;100.00;98133.28;5092011;28;20016;-75
2022/02/20 03:13:44;;;;;;;8.38;3.58;;;;;;;5.14;100.00;98138.19;5092143;28;20080;-74
2022/02/20 03:16:12;;;;;;;5.88;3.20;;;;;;;5.16;100.00;98141.50;5090266;28;20074;-74
2022/02/20 03:18:37;;;;;;;5.35;3.08;;;;;;;5.17;100.00;98148.53;5091697;28;20040;-75
2022/02/20 03:21:05;;;;;;;5.65;3.25;;;;;;;5.22;100.00;98162.16;5092413;28;20032;-78
2022/02/20 03:23:32;;;;;;;5.78;3.40;;;;;;;5.25;100.00;98167.06;5091518;28;20485;-75
2022/02/20 03:25:57;;;;;;;6.50;3.45;;;;;;;5.29;100.00;98162.75;5091556;28;20561;-74
2022/02/20 03:28:23;;;;;;;5.60;3.30;;;;;;;5.24;100.00;98160.00;5091757;28;20111;-75
2022/02/20 03:30:49;;;;;;;8.30;3.90;;;;;;;5.27;100.00;98151.34;5089984;28;20024;-74
2022/02/20 03:33:15;;;;;;;8.30;4.13;;;;;;;5.17;100.00;98159.38;5090163;28;20546;-74
2022/02/20 03:35:41;;;;;;;7.35;3.83;;;;;;;5.10;100.00;98142.53;5083886;28;20032;-74
2022/02/20 03:38:07;;;;;;;8.57;4.38;;;;;;;5.11;100.00;98144.13;5085890;28;20032;-74
2022/02/20 03:40:33;;;;;;;6.68;3.90;;;;;;;5.04;100.00;98148.97;5090602;28;20040;-75
2022/02/20 03:43:01;;;;;;;7.10;3.78;;;;;;;5.07;100.00;98153.06;5071057;28;20106;-75
2022/02/20 03:45:28;;;;;;;8.50;4.25;;;;;;;4.97;100.00;98152.94;5070870;28;20036;-75
2022/02/20 03:47:53;;;;;;;7.60;4.00;;;;;;;4.86;100.00;98135.72;5070929;28;20028;-75
2022/02/20 03:50:19;;;;;;;5.85;3.60;;;;;;;4.84;100.00;98152.25;5052848;28;20451;-74
2022/02/20 03:52:45;;;;;;;6.82;3.88;;;;;;;4.83;100.00;98147.06;5069983;28;20032;-76
2022/02/20 03:55:17;;;;;;;6.50;3.45;;;;;;;4.81;100.00;98149.22;5090824;28;20024;-75
2022/02/20 03:57:43;;;;;;;6.55;3.75;;;;;;;4.71;100.00;98133.69;5090574;28;20036;-75
2022/02/20 04:00:21;;;;;;;7.50;3.70;;;;;;;4.75;100.00;98136.69;5090450;28;20032;-74
2022/02/20 04:02:46;;;;;;;7.82;3.42;;;;;;;4.68;100.00;98149.63;5090385;28;20028;-74
2022/02/20 04:05:13;;;;;;;7.55;3.85;;;;;;;4.73;100.00;98144.28;5090256;28;20069;-74
2022/02/20 04:07:39;;;;;;;6.63;3.58;;;;;;;4.77;100.00;98132.66;5089293;28;20039;-74
2022/02/20 04:10:07;;;;;;;5.78;2.95;;;;;;;4.70;100.00;98136.63;5090972;28;20012;-74
2022/02/20 04:12:32;;;;;;;4.40;2.50;;;;;;;4.60;100.00;98133.81;5091086;28;20496;-74
2022/02/20 04:14:58;;;;;;;5.70;3.00;;;;;;;4.58;100.00;98136.75;5091722;28;20032;-77
2022/02/20 04:17:24;;;;;;;6.65;3.00;;;;;;;4.56;100.00;98136.22;5091070;28;20012;-74
2022/02/20 04:19:51;;;;;;;5.90;2.53;;;;;;;4.56;100.00;98128.09;5089257;28;20484;-74
2022/02/20 04:22:17;;;;;;;3.40;1.92;;;;;;;4.50;100.00;98123.69;5089237;28;20020;-74
2022/02/20 04:24:43;;;;;;;4.10;1.88;;;;;;;4.49;100.00;98135.56;5089068;28;20047;-74
2022/02/20 04:27:12;;;;;;;2.78;1.60;;;;;;;4.53;100.00;98125.88;5090610;28;20487;-75
2022/02/20 04:29:37;;;;;;;3.40;1.70;;;;;;;4.51;100.00;98124.50;5087797;28;20024;-75
2022/02/20 04:32:03;;;;;;;2.97;1.40;;;;;;;4.56;100.00;98124.56;5089009;28;20127;-74
2022/02/20 04:34:29;;;;;;;3.65;1.80;;;;;;;4.58;100.00;98142.19;5089278;28;20418;-74
2022/02/20 04:36:54;;;;;;;5.13;1.67;;;;;;;4.53;100.00;98130.47;5092230;28;20126;-74
2022/02/20 04:39:20;;;;;;;7.05;1.40;;;;;;;4.40;100.00;98136.25;5091496;28;20024;-74
2022/02/20 04:41:46;;;;;;;4.25;1.52;;;;;;;4.47;100.00;98145.03;5092082;28;20031;-75
2022/02/20 04:44:11;;;;;;;2.40;1.35;;;;;;;4.40;100.00;98137.09;5089795;28;20024;-75
2022/02/20 04:46:37;;;;;;;3.15;1.50;;;;;;;4.39;100.00;98127.31;5090007;28;20028;-74
2022/02/20 04:49:04;;;;;;;3.63;1.67;;;;;;;4.32;100.00;98124.78;5090264;28;20438;-74
2022/02/20 04:51:30;;;;;;;4.35;2.47;;;;;;;4.28;100.00;98120.97;5090572;28;20374;-74
2022/02/20 04:53:55;;;;;;;3.95;2.22;;;;;;;4.19;100.00;98108.94;5081523;28;20101;-74
2022/02/20 04:56:20;;;;;;;2.90;1.70;;;;;;;4.13;100.00;98109.94;5069864;28;20056;-74
2022/02/20 04:58:46;;;;;;;4.20;2.22;;;;;;;4.06;100.00;98101.19;5078444;28;20532;-74
2022/02/20 05:01:11;;;;;;;4.00;2.10;;;;;;;4.16;100.00;98117.56;5090196;28;20028;-74
2022/02/20 05:03:37;;;;;;;7.25;2.25;;;;;;;4.16;100.00;98109.44;5090324;28;20592;-74
2022/02/20 05:06:02;;;;;;;3.30;1.80;;;;;;;4.13;100.00;98115.34;5090229;28;20035;-75
2022/02/20 05:08:28;;;;;;;4.10;2.13;;;;;;;4.14;100.00;98108.03;5091502;28;20020;-80
2022/02/20 05:10:53;;;;;;;3.78;1.85;;;;;;;4.20;100.00;98124.09;5094987;28;20070;-75
2022/02/20 05:13:18;;;;;;;6.30;2.33;;;;;;;4.24;100.00;98130.66;5091476;28;20021;-75
2022/02/20 05:15:47;;;;;;;3.70;2.00;;;;;;;4.27;100.00;98132.84;5089713;28;20021;-75
2022/02/20 05:18:13;;;;;;;4.18;2.00;;;;;;;4.28;100.00;98115.56;5090085;28;20043;-74
2022/02/20 05:20:38;;;;;;;4.32;1.95;;;;;;;4.43;100.00;98124.94;5088648;28;20433;-75
2022/02/20 05:23:04;;;;;;;4.97;1.67;;;;;;;4.51;100.00;98132.63;5088806;28;20118;-75
2022/02/20 05:25:29;;;;;;;3.30;1.65;;;;;;;4.46;100.00;98136.06;5091698;28;20058;-74
2022/02/20 05:27:55;;;;;;;3.67;1.58;;;;;;;4.50;100.00;98131.81;5093246;28;20113;-74
2022/02/20 05:30:20;;;;;;;5.65;1.92;;;;;;;4.44;100.00;98129.28;5093476;28;20032;-75
2022/02/20 05:32:46;;;;;;;4.68;1.77;;;;;;;4.38;100.00;98139.22;5093727;28;20034;-75
2022/02/20 05:35:12;;;;;;;5.38;2.15;;;;;;;4.37;100.00;98140.28;5093810;28;20419;-75
2022/02/20 05:37:49;;;;;;;3.28;1.80;;;;;;;4.35;100.00;98145.16;5093718;28;20020;-74
2022/02/20 05:40:19;;;;;;;3.88;1.70;;;;;;;4.45;100.00;98139.06;5093697;28;20481;-74
2022/02/20 05:42:45;;;;;;;4.07;1.90;;;;;;;4.54;100.00;98148.38;5094100;28;20423;-74
2022/02/20 05:45:10;;;;;;;3.13;1.70;;;;;;;4.64;100.00;98152.00;5093540;28;20036;-74
2022/02/20 05:47:36;;;;;;;3.70;1.85;;;;;;;4.62;100.00;98156.03;5092285;28;20055;-75
2022/02/20 05:50:03;;;;;;;3.40;1.60;;;;;;;4.66;100.00;98157.19;5093620;28;20477;-74
2022/02/20 05:52:29;;;;;;;4.07;1.70;;;;;;;4.62;100.00;98150.63;5092163;28;20024;-74
2022/02/20 05:54:55;;;;;;;2.85;1.50;;;;;;;4.75;100.00;98164.63;5091844;28;20365;-73
2022/02/20 05:57:20;;;;;;;3.58;1.63;;;;;;;4.72;100.00;98158.88;5093020;28;20073;-74
2022/02/20 05:59:45;;;;;;;3.70;2.03;;;;;;;4.69;100.00;98160.22;5093408;28;20504;-74
2022/02/20 06:02:11;;;;;;;3.25;2.03;;;;;;;4.77;100.00;98169.78;5093286;28;20032;-74
2022/02/20 06:04:38;;;;;;;3.65;1.88;;;;;;;4.76;100.00;98163.53;5094379;28;20074;-74
2022/02/20 06:07:03;;;;;;;4.40;2.10;;;;;;;4.78;100.00;98160.56;5094892;28;20031;-74
2022/02/20 06:09:30;;;;;;;4.13;2.30;;;;;;;4.79;100.00;98167.66;5091812;28;20028;-74
2022/02/20 06:11:55;;;;;;;3.85;2.38;;;;;;;4.74;100.00;98157.56;5093477;28;20035;-74
2022/02/20 06:14:21;;;;;;;4.30;2.80;;;;;;;4.70;100.00;98163.72;5091728;28;20039;-74
2022/02/20 06:16:46;;;;;;;4.25;2.50;;;;;;;4.66;100.00;98157.19;5093058;28;20032;-74
2022/02/20 06:19:12;;;;;;;4.18;2.35;;;;;;;4.66;100.00;98159.91;5091640;28;20439;-73
2022/02/20 06:21:37;;;;;;;6.47;3.40;;;;;;;4.60;100.00;98159.03;5091608;28;20115;-74
2022/02/20 06:24:03;;;;;;;6.43;3.17;;;;;;;4.61;100.00;98165.22;5092711;28;20095;-79
2022/02/20 06:26:28;;;;;;;4.85;2.58;;;;;;;4.67;100.00;98156.91;5085800;28;20066;-74
2022/02/20 06:28:53;;;;;;;7.03;2.28;;;;;;;4.76;100.00;98162.72;5083402;28;20020;-73
2022/02/20 06:31:19;;;;;;;5.38;2.30;;;;;;;4.82;100.00;98161.72;5072328;28;20020;-74
2022/02/20 06:33:47;;;;;;;3.88;2.13;;;;;;;4.84;100.00;98162.28;5087328;28;20533;-73
2022/02/20 06:36:13;;;;;;;4.82;2.45;;;;;;;4.96;100.00;98173.78;5092039;28;20062;-73
2022/02/20 06:38:39;;;;;;;4.63;2.65;;;;;;;5.06;100.00;98190.19;5092344;28;20111;-74
2022/02/20 06:41:04;;;;;;;5.05;2.45;;;;;;;5.00;100.00;98187.66;5091027;28;20483;-73
2022/02/20 06:43:29;;;;;;;4.38;2.20;;;;;;;5.10;100.00;98183.19;5092413;28;20085;-73
2022/02/20 06:45:55;;;;;;;4.15;2.58;;;;;;;5.00;100.00;98185.78;5076475;28;20131;-73
2022/02/20 06:48:20;;;;;;;4.25;2.38;;;;;;;5.08;100.00;98182.59;5071860;28;20067;-73
2022/02/20 06:50:46;;;;;;;4.60;2.78;;;;;;;5.13;100.00;98190.81;5071786;28;20378;-75
2022/02/20 06:53:11;;;;;;;6.22;3.70;;;;;;;5.14;100.00;98191.59;5070351;28;20064;-74
2022/02/20 06:55:38;;;;;;;5.13;3.20;;;;;;;5.13;100.00;98198.13;5072928;28;20021;-73
2022/02/20 06:58:03;;;;;;;7.22;2.97;;;;;;;5.08;100.00;98214.31;5076966;28;20070;-76
2022/02/20 07:00:28;;;;;;;4.70;2.80;;;;;;;5.09;100.00;98205.94;5078305;28;20115;-74
2022/02/20 07:02:54;;;;;;;4.10;2.47;;;;;;;5.09;100.00;98208.66;5076270;28;20009;-75
2022/02/20 07:05:20;;;;;;;5.10;2.78;;;;;;;5.16;100.00;98200.31;5070312;28;20052;-74
2022/02/20 07:07:45;;;;;;;5.93;2.55;;;;;;;5.11;100.00;98209.19;5071608;28;20024;-75
2022/02/20 07:10:11;;;;;;;3.80;2.17;;;;;;;5.20;100.00;98202.25;5071814;28;20382;-74
2022/02/20 07:12:37;;;;;;;4.72;2.85;;;;;;;5.33;100.00;98222.72;5072296;28;20024;-74
2022/02/20 07:15:04;;;;;;;5.20;2.97;;;;;;;5.36;100.00;98220.31;5071539;28;20020;-75
2022/02/20 07:17:30;;;;;;;4.88;2.40;;;;;;;5.42;100.00;98221.19;5083832;28;20020;-78
2022/02/20 07:19:55;;;;;;;5.43;2.75;;;;;;;5.44;100.00;98224.47;5084947;28;20107;-74
2022/02/20 07:22:21;;;;;;;5.32;3.15;;;;;;;5.51;100.00;98208.81;5092868;28;20032;-75
2022/02/20 07:24:46;;;;;;;5.82;2.97;;;;;;;5.55;100.00;98200.97;5094012;28;20389;-75
2022/02/20 07:27:12;;;;;;;4.10;2.30;;;;;;;5.22;100.00;98210.97;5090716;28;20540;-74
2022/02/20 07:29:37;;;;;;;4.10;2.05;;;;;;;5.08;100.00;98204.28;5090337;28;20016;-75
2022/02/20 07:32:03;;;;;;;4.50;2.47;;;;;;;5.01;100.00;98203.66;5091758;28;20024;-74
2022/02/20 07:34:28;;;;;;;4.75;2.03;;;;;;;5.20;100.00;98218.50;5092552;28;20476;-74
2022/02/20 07:36:54;;;;;;;4.07;2.15;;;;;;;5.14;100.00;98207.88;5070649;28;20043;-75
2022/02/20 07:39:20;;;;;;;6.25;3.15;;;;;;;5.37;100.00;98213.00;5089620;28;20036;-74
2022/02/20 07:41:46;;;;;;;5.60;2.78;;;;;;;5.46;100.00;98218.78;5091144;28;20093;-74
2022/02/20 07:44:11;;;;;;;6.00;3.35;;;;;;;5.63;100.00;98223.06;5089846;28;20472;-74
2022/02/20 07:46:36;;;;;;;8.10;4.63;;;;;;;5.69;100.00;98219.31;5089853;28;20047;-75
2022/02/20 07:49:03;;;;;;;5.28;3.28;;;;;;;5.77;100.00;98212.56;5088601;28;20028;-74
2022/02/20 07:51:28;;;;;;;5.72;2.35;;;;;;;5.87;100.00;98223.56;5089663;28;20447;-74
2022/02/20 07:53:55;;;;;;;5.00;2.60;;;;;;;6.03;100.00;98227.22;5090733;28;20114;-74
2022/02/20 07:56:20;;;;;;;4.35;2.35;;;;;;;6.12;100.00;98218.34;5092483;28;20447;-74
2022/02/20 07:58:46;;;;;;;4.32;2.58;;;;;;;6.30;100.00;98217.91;5091011;28;20048;-76
2022/02/20 08:01:12;;;;;;;6.32;2.70;;;;;;;6.21;100.00;98208.63;5089807;28;20703;-74
2022/02/20 08:03:38;;;;;;;4.53;2.47;;;;;;;6.28;100.00;98195.63;5087701;28;20024;-74
2022/02/20 08:06:04;;;;;;;4.35;2.40;;;;;;;5.61;100.00;98198.03;5083759;28;20038;-74
2022/02/20 08:08:32;;;;;;;5.40;2.90;;;;;;;5.81;100.00;98202.84;5087313;28;20060;-74
2022/02/20 08:10:58;;;;;;;4.85;2.72;;;;;;;6.24;100.00;98202.66;5086205;28;20012;-74
2022/02/20 08:13:24;;;;;;;4.72;2.75;;;;;;;6.62;100.00;98201.53;5088336;28;20030;-71
2022/02/20 08:15:50;;;;;;;4.93;2.60;;;;;;;7.98;100.00;98207.38;5082965;28;20036;-71
2022/02/20 08:18:15;;;;;;;4.65;2.40;;;;;;;8.43;100.00;98213.88;5077836;28;20012;-75
2022/02/20 08:20:41;;;;;;;4.55;2.40;;;;;;;8.40;100.00;98220.72;5069127;28;20025;-74
2022/02/20 08:23:08;;;;;;;5.20;2.33;;;;;;;7.88;100.00;98218.25;5070113;28;20012;-74
2022/02/20 08:25:33;;;;;;;4.15;2.30;;;;;;;7.45;100.00;98222.28;5068656;28;20097;-74
2022/02/20 08:27:59;;;;;;;3.22;1.83;;;;;;;7.51;100.00;98213.03;5068792;28;20024;-75
2022/02/20 08:30:25;;;;;;;3.35;1.98;;;;;;;8.36;100.00;98227.81;5069847;28;20063;-76
2022/02/20 08:32:50;;;;;;;3.45;1.70;;;;;;;8.86;98.12;98226.06;5070239;28;20483;-75
2022/02/20 08:35:16;;;;;;;3.80;2.00;;;;;;;9.29;97.29;98222.63;5070261;28;20116;-75
2022/02/20 08:37:45;;;;;;;3.88;2.47;;;;;;;9.49;95.64;98222.50;5070194;28;20389;-75
2022/02/20 08:40:13;;;;;;;4.53;2.40;;;;;;;9.76;95.70;98226.72;5074013;28;20032;-75
2022/02/20 08:42:39;;;;;;;5.32;2.10;;;;;;;10.43;90.82;98213.09;5091122;28;20074;-75
2022/02/20 08:45:05;;;;;;;4.53;2.03;;;;;;;10.07;89.25;98222.69;5090286;28;20032;-75
2022/02/20 08:47:31;;;;;;;3.22;1.85;;;;;;;10.51;86.67;98223.41;5089444;28;20492;-77
2022/02/20 08:49:56;;;;;;;6.07;3.17;;;;;;;10.29;86.39;98217.59;5090233;28;20016;-76
2022/02/20 08:52:22;;;;;;;3.53;1.63;;;;;;;10.27;87.85;98221.72;5083986;28;20024;-76
2022/02/20 08:54:49;;;;;;;3.47;1.67;;;;;;;10.43;87.34;98229.50;5089917;28;20016;-76
2022/02/20 08:57:15;;;;;;;4.38;1.88;;;;;;;10.40;85.97;98227.34;5090356;28;20059;-75
2022/02/20 08:59:40;;;;;;;3.63;1.63;;;;;;;10.10;87.95;98222.09;5091574;28;20511;-75
2022/02/20 09:02:07;;;;;;;3.80;1.90;;;;;;;9.95;90.34;98231.25;5094692;28;20024;-76
2022/02/20 09:04:33;;;;;;;4.13;1.50;;;;;;;9.22;90.11;98226.75;5094291;28;20031;-74
2022/02/20 09:06:58;;;;;;;2.80;1.58;;;;;;;9.50;90.39;98229.59;5093923;28;20020;-76
2022/02/20 09:09:24;;;;;;;4.13;1.30;;;;;;;8.88;90.30;98234.78;5094179;28;20024;-75
2022/02/20 09:11:49;;;;;;;3.22;1.33;;;;;;;9.78;89.66;98239.00;5095029;28;20035;-74
2022/02/20 09:14:15;;;;;;;2.65;1.85;;;;;;;10.73;86.26;98226.47;5094029;28;20024;-74
2022/02/20 09:16:41;;;;;;;2.53;1.60;;;;;;;10.35;82.93;98238.31;5094199;28;20034;-75
2022/02/20 09:19:07;;;;;;;2.65;1.60;;;;;;;11.93;78.74;98249.09;5094203;28;20473;-75
2022/02/20 09:21:33;;;;;;;2.72;1.60;;;;;;;11.68;77.57;98242.03;5093724;28;20024;-74
2022/02/20 09:23:59;;;;;;;3.03;1.70;;;;;;;11.28;76.81;98240.63;5094101;28;20529;-73
2022/02/20 09:26:24;;;;;;;3.05;1.40;;;;;;;11.10;78.64;98241.38;5089197;28;20038;-74
2022/02/20 09:28:50;;;;;;;3.20;1.60;;;;;;;11.98;77.25;98229.81;5107677;28;20906;-73
2022/02/20 09:31:16;;;;;;;3.20;1.70;;;;;;;12.71;73.47;98233.53;5105316;28;20016;-73
2022/02/20 09:33:41;;;;;;;2.75;1.60;;;;;;;12.75;72.73;98240.03;5107631;28;20038;-73
2022/02/20 09:36:08;;;;;;;2.88;1.40;;;;;;;12.93;73.93;98241.09;5104951;28;20040;-74
2022/02/20 09:38:36;;;;;;;2.05;1.13;;;;;;;12.59;72.86;98238.69;5113226;28;20020;-75
2022/02/20 09:41:10;;;;;;;2.70;1.40;;;;;;;12.30;73.23;98241.66;5101624;28;20051;-75
2022/02/20 09:43:37;;;;;;;3.72;1.60;;;;;;;12.54;73.47;98238.78;5100873;28;20016;-75
2022/02/20 09:46:03;;;;;;;3.40;1.58;;;;;;;11.91;75.76;98243.91;5111000;28;20057;-74
2022/02/20 09:48:29;;;;;;;2.42;1.40;;;;;;;11.68;77.16;98242.03;5097565;28;20038;-74
2022/02/20 09:50:55;;;;;;;2.70;1.40;;;;;;;11.46;78.58;98242.59;5105283;28;20032;-74
2022/02/20 09:53:21;;;;;;;2.28;1.20;;;;;;;11.45;78.73;98237.41;5104626;28;20388;-75
2022/02/20 09:55:48;;;;;;;3.33;1.55;;;;;;;11.49;78.34;98238.44;5102758;28;20043;-75
2022/02/20 09:58:16;;;;;;;2.47;1.50;;;;;;;11.00;77.39;98244.25;5113785;28;20493;-75
2022/02/20 10:00:55;;;;;;;4.22;1.60;;;;;;;12.02;73.63;98241.84;5106841;28;20034;-76
2022/02/20 10:03:32;;;;;;;3.85;2.10;;;;;;;11.52;74.12;98240.59;5096066;28;20020;-73
2022/02/20 10:06:00;;;;;;;4.43;1.70;;;;;;;11.02;76.89;98229.19;5103266;28;20480;-74
2022/02/20 10:08:26;;;;;;;2.50;1.40;;;;;;;10.20;80.26;98227.53;5101497;28;20050;-75
2022/02/20 10:10:51;;;;;;;3.15;1.70;;;;;;;9.78;81.96;98225.34;5100528;28;20381;-74
2022/02/20 10:13:25;;;;;;;3.80;1.83;;;;;;;8.78;87.63;98222.00;5093065;28;20092;-73
2022/02/20 10:15:50;;;;;;;3.35;2.00;;;;;;;8.70;89.23;98219.03;5098601;28;20040;-74
2022/02/20 10:18:20;;;;;;;3.28;1.80;;;;;;;8.69;90.92;98225.56;5102113;28;20034;-73
2022/02/20 10:20:48;;;;;;;3.80;1.70;;;;;;;8.27;91.69;98226.69;5098676;28;20032;-74
2022/02/20 10:23:15;;;;;;;3.53;1.73;;;;;;;8.15;95.35;98217.97;5101728;28;20077;-74
2022/02/20 10:25:45;;;;;;;3.20;1.77;;;;;;;8.39;95.40;98224.53;5098797;28;20036;-74
2022/02/20 10:28:11;;;;;;;3.90;1.83;;;;;;;8.30;93.89;98228.88;5099288;28;20016;-74
2022/02/20 10:30:38;;;;;;;4.97;2.30;;;;;;;8.61;93.22;98226.97;5103743;28;20019;-75
2022/02/20 10:33:20;;;;;;;3.55;1.95;;;;;;;8.94;93.78;98222.75;5103258;28;20123;-76
2022/02/20 10:35:50;;;;;;;4.90;1.90;;;;;;;8.86;92.45;98221.44;5098055;28;20020;-74
2022/02/20 10:38:19;;;;;;;4.32;2.22;;;;;;;8.96;91.55;98217.84;5099997;28;20036;-74
2022/02/20 10:40:47;;;;;;;4.10;2.22;;;;;;;9.07;91.25;98214.00;5096730;28;20023;-78
2022/02/20 10:43:33;;;;;;;4.90;2.35;;;;;;;9.24;90.15;98213.66;5102605;28;20389;-75
2022/02/20 10:46:20;;;;;;;4.47;2.50;;;;;;;9.19;88.89;98203.56;5099460;28;20024;-75
2022/02/20 10:48:48;;;;;;;4.85;2.78;;;;;;;9.34;89.07;98221.78;5091496;28;20077;-76
2022/02/20 10:51:16;;;;;;;3.22;2.13;;;;;;;9.30;88.80;98218.81;5100227;28;20027;-76
2022/02/20 10:53:44;;;;;;;3.80;2.38;;;;;;;9.38;87.97;98215.47;5099215;28;20050;-76
2022/02/20 10:56:10;;;;;;;3.45;2.13;;;;;;;9.20;89.28;98207.94;5105330;28;20031;-74
2022/02/20 10:58:44;;;;;;;4.30;2.65;;;;;;;9.32;92.07;98216.59;5099739;28;20051;-76
2022/02/20 11:01:29;;;;;;;4.40;2.65;;;;;;;8.97;91.95;98209.38;5107751;28;20074;-74
2022/02/20 11:04:10;;;;;;;5.03;3.50;;;;;;;8.91;91.33;98212.41;5100835;28;20492;-74
2022/02/20 11:06:40;;;;;;;4.40;2.58;;;;;;;9.17;89.98;98213.13;5092337;28;20027;-75
2022/02/20 11:09:07;;;;;;;4.88;2.85;;;;;;;9.18;90.21;98206.59;5098728;28;20485;-76
2022/02/20 11:11:38;;;;;;;5.00;2.80;;;;;;;9.43;89.60;98211.91;5099327;28;20107;-75
2022/02/20 11:14:09;;;;;;;4.63;2.63;;;;;;;9.44;88.96;98213.53;5106035;28;20093;-75
2022/02/20 11:16:44;;;;;;;4.72;2.60;;;;;;;9.27;87.06;98202.97;5091498;28;20481;-76
2022/02/20 11:19:14;;;;;;;4.87;2.33;;;;;;;9.48;86.53;98201.78;5099674;28;20061;-75
2022/02/20 11:21:45;;;;;;;3.67;2.58;;;;;;;9.46;85.46;98203.16;5097742;28;20036;-76
2022/02/20 11:24:11;;;;;;;4.70;2.75;;;;;;;9.53;85.82;98196.28;5098192;28;20024;-75
2022/02/20 11:26:40;;;;;;;4.38;2.83;;;;;;;9.23;86.26;98195.63;5097290;28;20024;-75
2022/02/20 11:29:06;;;;;;;5.57;3.05;;;;;;;8.75;89.32;98176.19;5098746;28;20024;-76